createdAt,value
2022-12-29T00:01:38.817Z,7.52
2022-12-29T00:06:40.485Z,7.81
2022-12-29T00:11:42.176Z,8.13
2022-12-29T00:16:45.839Z,7.78
2022-12-29T00:21:47.449Z,7.84
2022-12-29T00:27:11.245Z,8.13
2022-12-29T00:32:12.809Z,8.45
2022-12-29T00:37:14.448Z,8.67
2022-12-29T00:42:15.977Z,8.54
2022-12-29T00:47:18.876Z,8.66
2022-12-29T00:52:20.507Z,9.09
2022-12-29T00:57:22.308Z,9.20
2022-12-29T01:02:24.064Z,9.23
2022-12-29T01:07:25.759Z,9.27
2022-12-29T01:12:27.341Z,9.31
2022-12-29T01:17:29.244Z,9.30
2022-12-29T01:22:30.807Z,9.68
2022-12-29T01:27:32.395Z,9.82
2022-12-29T01:32:34.312Z,9.95
2022-12-29T01:37:35.923Z,10.09
2022-12-29T01:42:37.785Z,10.17
2022-12-29T01:47:50.687Z,10.37
2022-12-29T01:53:08.424Z,10.21
2022-12-29T01:58:12.300Z,10.43
2022-12-29T02:03:14.772Z,10.37
2022-12-29T02:08:16.491Z,9.68
2022-12-29T02:13:19.558Z,9.75
2022-12-29T02:18:36.294Z,9.69
2022-12-29T02:23:56.985Z,9.35
2022-12-29T02:29:16.790Z,9.34
2022-12-29T02:34:28.117Z,9.33
2022-12-29T02:39:49.407Z,9.21
2022-12-29T02:45:21.193Z,9.33
2022-12-29T02:50:50.991Z,9.35
2022-12-29T02:55:52.954Z,9.50
2022-12-29T03:01:24.141Z,9.52
2022-12-29T03:07:16.479Z,9.38
2022-12-29T03:12:51.200Z,9.26
2022-12-29T03:17:59.767Z,9.12
2022-12-29T03:23:04.081Z,8.99
2022-12-29T03:28:19.503Z,8.89
2022-12-29T03:33:26.321Z,8.56
2022-12-29T03:38:36.867Z,8.64
2022-12-29T03:43:38.756Z,8.58
2022-12-29T03:48:40.885Z,8.36
2022-12-29T03:53:44.027Z,8.44
2022-12-29T03:58:45.723Z,8.41
2022-12-29T04:03:52.504Z,8.33
2022-12-29T04:08:55.830Z,8.44
2022-12-29T04:13:57.535Z,8.28
2022-12-29T04:19:01.451Z,8.09
2022-12-29T04:24:03.186Z,8.12
2022-12-29T04:29:07.633Z,8.22
2022-12-29T04:34:28.582Z,8.25
2022-12-29T04:39:30.409Z,8.48
2022-12-29T04:44:32.641Z,8.38
2022-12-29T04:49:46.450Z,8.49
2022-12-29T04:55:17.552Z,8.41
2022-12-29T05:00:20.971Z,8.22
2022-12-29T05:05:22.813Z,8.25
2022-12-29T05:10:26.009Z,8.26
2022-12-29T05:15:29.263Z,8.22
2022-12-29T05:20:31.004Z,8.23
2022-12-29T05:25:33.104Z,8.14
2022-12-29T05:30:49.997Z,7.98
2022-12-29T05:35:52.884Z,7.84
2022-12-29T05:40:55.656Z,7.90
2022-12-29T05:46:26.383Z,7.87
2022-12-29T05:51:39.229Z,7.78
2022-12-29T05:56:40.982Z,7.76
2022-12-29T06:01:44.245Z,7.84
2022-12-29T06:06:47.553Z,7.90
2022-12-29T06:11:57.761Z,8.00
2022-12-29T06:17:01.470Z,7.89
2022-12-29T06:22:04.148Z,7.79
2022-12-29T06:27:08.992Z,7.69
2022-12-29T06:32:11.262Z,7.66
2022-12-29T06:37:17.364Z,7.87
2022-12-29T06:42:19.053Z,7.94
2022-12-29T06:47:32.106Z,7.98
2022-12-29T06:52:33.816Z,8.04
2022-12-29T06:57:35.570Z,8.06
2022-12-29T07:02:38.431Z,8.02
2022-12-29T07:07:40.251Z,8.16
2022-12-29T07:12:41.994Z,8.28
2022-12-29T07:17:43.772Z,8.33
2022-12-29T07:22:45.387Z,8.47
2022-12-29T07:27:47.140Z,8.70
2022-12-29T07:32:48.827Z,9.28
2022-12-29T07:37:50.532Z,9.91
2022-12-29T07:42:52.210Z,10.38
2022-12-29T07:48:01.639Z,10.68
2022-12-29T07:53:03.854Z,11.12
2022-12-29T07:58:05.594Z,11.49
2022-12-29T08:03:07.160Z,11.51
2022-12-29T08:08:08.681Z,11.89
2022-12-29T08:13:10.253Z,11.86
2022-12-29T08:18:11.729Z,11.99
2022-12-29T08:23:13.269Z,12.05
2022-12-29T08:28:14.789Z,11.87
2022-12-29T08:33:16.550Z,11.74
2022-12-29T08:38:18.091Z,11.81
2022-12-29T08:43:19.633Z,11.71
2022-12-29T08:48:21.264Z,11.62
2022-12-29T08:53:22.788Z,11.69
2022-12-29T08:58:25.047Z,11.87
2022-12-29T09:04:03.798Z,11.82
2022-12-29T09:08:49.114Z,11.91
2022-12-29T09:13:51.020Z,11.91
2022-12-29T09:18:52.490Z,11.99
2022-12-29T09:23:54.051Z,11.83
2022-12-29T09:28:55.839Z,11.99
2022-12-29T09:33:57.403Z,12.20
2022-12-29T09:38:58.896Z,12.40
2022-12-29T09:44:13.028Z,12.44
2022-12-29T09:49:19.834Z,12.74
2022-12-29T09:54:55.169Z,13.26
2022-12-29T10:00:16.512Z,14.15
2022-12-29T10:05:40.340Z,14.50
2022-12-29T10:10:57.403Z,14.86
2022-12-29T10:16:10.624Z,14.96
2022-12-29T10:21:45.883Z,15.11
2022-12-29T10:26:50.754Z,15.10
2022-12-29T10:32:00.473Z,14.87
2022-12-29T10:37:10.962Z,14.60
2022-12-29T10:42:20.256Z,14.63
2022-12-29T10:47:30.085Z,14.82
2022-12-29T10:52:34.192Z,14.91
2022-12-29T10:57:41.751Z,14.75
2022-12-29T11:03:04.762Z,14.86
2022-12-29T11:08:13.339Z,14.86
2022-12-29T11:13:19.373Z,14.91
2022-12-29T11:18:38.331Z,15.00
2022-12-29T11:23:42.475Z,14.74
2022-12-29T11:29:13.089Z,14.78
2022-12-29T11:34:35.606Z,14.86
2022-12-29T11:39:47.708Z,14.89
2022-12-29T11:44:51.819Z,14.92
2022-12-29T11:49:56.502Z,15.08
2022-12-29T11:54:58.520Z,15.44
2022-12-29T12:00:03.634Z,15.66
2022-12-29T12:05:19.775Z,15.68
2022-12-29T12:10:28.891Z,15.26
2022-12-29T12:15:45.860Z,15.13
2022-12-29T12:21:06.747Z,14.93
2022-12-29T12:26:22.114Z,14.66
2022-12-29T12:31:42.486Z,14.50
2022-12-29T12:36:58.259Z,14.39
2022-12-29T12:42:39.258Z,14.40
2022-12-29T12:47:52.859Z,14.31
2022-12-29T12:53:19.051Z,14.20
2022-12-29T12:58:36.902Z,14.02
2022-12-29T13:04:09.393Z,14.14
2022-12-29T13:09:42.057Z,14.23
2022-12-29T13:15:09.906Z,14.10
2022-12-29T13:20:33.174Z,13.97
2022-12-29T13:25:50.498Z,13.78
2022-12-29T13:31:16.642Z,13.97
2022-12-29T13:36:44.410Z,13.85
2022-12-29T13:41:55.152Z,13.91
2022-12-29T13:47:00.300Z,13.93
2022-12-29T13:52:25.678Z,14.00
2022-12-29T13:57:46.613Z,13.88
2022-12-29T14:02:57.580Z,14.14
2022-12-29T14:08:02.704Z,14.05
2022-12-29T14:13:14.071Z,13.77
2022-12-29T14:18:20.442Z,13.86
2022-12-29T14:23:36.711Z,14.12
2022-12-29T14:28:41.220Z,13.88
2022-12-29T14:34:08.401Z,13.85
2022-12-29T14:39:30.109Z,13.75
2022-12-29T14:44:32.127Z,13.84
2022-12-29T14:49:42.534Z,13.85
2022-12-29T14:54:47.179Z,13.85
2022-12-29T14:59:54.327Z,13.75
2022-12-29T15:05:00.729Z,13.81
2022-12-29T15:10:12.786Z,13.68
2022-12-29T15:15:38.751Z,13.69
2022-12-29T15:20:40.339Z,13.45
2022-12-29T15:25:55.889Z,13.53
2022-12-29T15:31:03.917Z,13.55
2022-12-29T15:36:13.009Z,13.44
2022-12-29T15:42:02.746Z,13.70
2022-12-29T15:47:06.410Z,13.56
2022-12-29T15:52:11.679Z,13.66
2022-12-29T15:57:26.908Z,13.68
2022-12-29T16:02:29.095Z,13.73
2022-12-29T16:07:39.179Z,13.81
2022-12-29T16:12:43.160Z,13.74
2022-12-29T16:17:49.558Z,13.59
2022-12-29T16:22:56.265Z,13.46
2022-12-29T16:27:59.842Z,13.41
2022-12-29T16:33:03.979Z,13.29
2022-12-29T16:38:19.092Z,13.11
2022-12-29T16:43:28.699Z,12.96
2022-12-29T16:48:32.055Z,12.81
2022-12-29T16:53:39.908Z,12.74
2022-12-29T16:58:51.508Z,12.77
2022-12-29T17:04:05.051Z,12.60
2022-12-29T17:09:31.841Z,12.41
2022-12-29T17:26:00.744Z,12.51
2022-12-29T17:31:10.785Z,12.39
2022-12-29T17:36:21.420Z,12.17
2022-12-29T17:41:25.384Z,12.15
2022-12-29T17:46:28.648Z,12.02
2022-12-29T17:51:31.674Z,11.93
2022-12-29T17:56:36.352Z,12.01
2022-12-29T18:01:45.438Z,11.97
2022-12-29T18:06:50.733Z,12.02
2022-12-29T18:11:56.386Z,11.87
2022-12-29T18:17:07.311Z,11.90
2022-12-29T18:22:10.188Z,11.97
2022-12-29T18:27:16.352Z,12.07
2022-12-29T18:32:18.787Z,12.08
2022-12-29T18:37:20.895Z,12.08
2022-12-29T18:42:22.843Z,12.23
2022-12-29T18:47:24.608Z,12.10
2022-12-29T18:52:26.453Z,12.22
2022-12-29T18:57:28.234Z,12.19
2022-12-29T19:02:30.840Z,12.31
2022-12-29T19:07:32.843Z,12.34
2022-12-29T19:12:34.615Z,12.25
2022-12-29T19:17:36.367Z,12.12
2022-12-29T19:22:38.127Z,12.23
2022-12-29T19:27:39.950Z,12.29
2022-12-29T19:32:42.318Z,12.00
2022-12-29T19:37:43.880Z,12.14
2022-12-29T19:42:45.774Z,12.03
2022-12-29T19:47:49.593Z,12.02
2022-12-29T19:52:57.339Z,12.36
2022-12-29T19:58:06.137Z,12.34
2022-12-29T20:03:07.842Z,12.37
2022-12-29T20:08:09.500Z,12.32
2022-12-29T20:13:11.003Z,12.35
2022-12-29T20:18:14.436Z,12.38
2022-12-29T20:23:16.461Z,12.49
2022-12-29T20:28:18.052Z,12.48
2022-12-29T20:33:19.725Z,12.48
2022-12-29T20:38:21.420Z,12.59
2022-12-29T20:43:22.885Z,12.64
2022-12-29T20:48:24.537Z,12.51
2022-12-29T20:53:27.389Z,12.48
2022-12-29T20:58:29.075Z,12.42
2022-12-29T21:03:30.938Z,12.18
2022-12-29T21:08:33.036Z,12.08
2022-12-29T21:13:35.158Z,11.97
2022-12-29T21:18:36.786Z,12.01
2022-12-29T21:23:39.232Z,12.03
2022-12-29T21:28:41.986Z,12.04
2022-12-29T21:33:43.564Z,12.18
2022-12-29T21:38:45.274Z,12.05
2022-12-29T21:43:47.747Z,11.95
2022-12-29T21:48:50.266Z,11.94
2022-12-29T21:54:00.486Z,11.89
2022-12-29T21:59:02.485Z,11.94
2022-12-29T22:04:04.560Z,11.99
2022-12-29T22:09:06.570Z,11.96
2022-12-29T22:14:08.305Z,11.95
2022-12-29T22:19:10.533Z,12.13
2022-12-29T22:24:13.968Z,12.21
2022-12-29T22:29:16.282Z,12.36
2022-12-29T22:34:18.851Z,12.25
2022-12-29T22:39:20.909Z,12.21
2022-12-29T22:44:24.499Z,12.31
2022-12-29T22:49:26.254Z,11.98
2022-12-29T22:54:27.875Z,12.01
2022-12-29T22:59:29.548Z,12.05
2022-12-29T23:09:52.993Z,11.90
2022-12-29T23:14:54.661Z,12.19
2022-12-29T23:19:56.451Z,12.21
2022-12-29T23:24:58.349Z,12.41
2022-12-29T23:30:00.110Z,12.09
2022-12-29T23:35:01.807Z,11.86
2022-12-29T23:40:03.810Z,11.88
2022-12-29T23:45:06.305Z,11.96
2022-12-29T23:50:08.871Z,11.95
2022-12-29T23:55:11.199Z,11.73
